Iowana, Mississippi
Current Conditions -  °F | °C
As of 12:53 PM on Monday 20 Oct 2014 (Local Time) from KPQL Reporting Station
Clear Clear  
Wind Chill: 77°   Ceiling: Unl
Heat Index: 78°   Visibility: 10mi
Dew Point: 51°   Wind: 0mph
Humidity: 40%   Direction: NA
Pressure: 30.03"   Gusts: NA
Location:  30.4104°N, 88.6488°W
Report Text: KPQL 201753Z 00000KT 10SM CLR 25/11 A3003 RMK AO2 SLP171 T02500106 10256 20072 58017
Loading
Personal Weather Stations






























Interactive Weather Map
Tropical Storm Tracking
New forecast layout! Learn more

10-Day Weather Forecast

Advertisements
Track Severe Weather on mobile